sensor_id;sensor_type;location;lat;lon;timestamp;pressure;altitude;pressure_sealevel;temperature;humidity
45941;BME280;31858;46.008;8.978;2023-11-19T00:06:39;94951.53;;;7.53;49.29
45941;BME280;31858;46.008;8.978;2023-11-19T00:16:42;94942.13;;;7.40;50.14
45941;BME280;31858;46.008;8.978;2023-11-19T00:26:44;94927.25;;;7.51;48.55
45941;BME280;31858;46.008;8.978;2023-11-19T00:36:47;94918.06;;;7.33;47.56
45941;BME280;31858;46.008;8.978;2023-11-19T00:46:49;94924.56;;;7.19;49.03
45941;BME280;31858;46.008;8.978;2023-11-19T00:56:52;94921.19;;;7.07;49.71
45941;BME280;31858;46.008;8.978;2023-11-19T01:06:54;94922.97;;;7.03;50.13
45941;BME280;31858;46.008;8.978;2023-11-19T01:16:57;94920.00;;;6.76;51.61
45941;BME280;31858;46.008;8.978;2023-11-19T01:26:59;94912.09;;;6.92;53.84
45941;BME280;31858;46.008;8.978;2023-11-19T01:37:02;94903.44;;;6.79;51.97
45941;BME280;31858;46.008;8.978;2023-11-19T01:47:04;94905.97;;;6.76;53.37
45941;BME280;31858;46.008;8.978;2023-11-19T01:57:08;94894.63;;;6.75;51.67
45941;BME280;31858;46.008;8.978;2023-11-19T02:07:10;94882.16;;;6.76;51.35
45941;BME280;31858;46.008;8.978;2023-11-19T02:17:26;94879.22;;;6.65;51.90
45941;BME280;31858;46.008;8.978;2023-11-19T02:37:34;94865.41;;;6.72;51.80
45941;BME280;31858;46.008;8.978;2023-11-19T02:47:35;94858.81;;;6.66;52.44
45941;BME280;31858;46.008;8.978;2023-11-19T02:57:39;94846.91;;;6.60;50.33
45941;BME280;31858;46.008;8.978;2023-11-19T03:07:46;94827.13;;;6.69;51.42
45941;BME280;31858;46.008;8.978;2023-11-19T03:17:49;94825.25;;;6.70;51.66
45941;BME280;31858;46.008;8.978;2023-11-19T03:27:51;94831.13;;;6.63;50.33
45941;BME280;31858;46.008;8.978;2023-11-19T03:37:54;94820.19;;;6.65;53.11
45941;BME280;31858;46.008;8.978;2023-11-19T03:47:56;94810.19;;;6.58;54.71
45941;BME280;31858;46.008;8.978;2023-11-19T03:57:59;94797.53;;;6.51;54.86
45941;BME280;31858;46.008;8.978;2023-11-19T04:08:01;94785.34;;;6.63;51.11
45941;BME280;31858;46.008;8.978;2023-11-19T04:18:04;94785.34;;;6.63;52.66
45941;BME280;31858;46.008;8.978;2023-11-19T04:28:05;94777.22;;;6.55;52.77
45941;BME280;31858;46.008;8.978;2023-11-19T04:38:08;94782.69;;;6.63;51.73
45941;BME280;31858;46.008;8.978;2023-11-19T04:48:11;94765.41;;;6.37;50.84
45941;BME280;31858;46.008;8.978;2023-11-19T04:58:14;94766.69;;;6.28;52.57
45941;BME280;31858;46.008;8.978;2023-11-19T05:08:15;94757.44;;;6.21;54.42
45941;BME280;31858;46.008;8.978;2023-11-19T05:18:18;94752.69;;;5.99;54.24
45941;BME280;31858;46.008;8.978;2023-11-19T05:28:21;94738.63;;;6.11;54.40
45941;BME280;31858;46.008;8.978;2023-11-19T05:38:26;94745.75;;;5.95;54.39
45941;BME280;31858;46.008;8.978;2023-11-19T05:48:29;94738.88;;;6.06;53.57
45941;BME280;31858;46.008;8.978;2023-11-19T05:58:32;94730.50;;;6.04;54.86
45941;BME280;31858;46.008;8.978;2023-11-19T06:08:33;94732.19;;;5.96;54.50
45941;BME280;31858;46.008;8.978;2023-11-19T06:18:37;94725.28;;;5.79;56.06
45941;BME280;31858;46.008;8.978;2023-11-19T06:28:39;94716.88;;;5.49;62.19
45941;BME280;31858;46.008;8.978;2023-11-19T06:38:42;94722.94;;;5.50;61.55
45941;BME280;31858;46.008;8.978;2023-11-19T06:48:43;94718.84;;;5.52;62.67
45941;BME280;31858;46.008;8.978;2023-11-19T06:58:46;94734.69;;;5.65;60.89
45941;BME280;31858;46.008;8.978;2023-11-19T07:08:49;94717.94;;;5.61;62.93
45941;BME280;31858;46.008;8.978;2023-11-19T07:18:51;94727.09;;;5.51;65.32
45941;BME280;31858;46.008;8.978;2023-11-19T07:28:53;94723.22;;;5.61;65.13
45941;BME280;31858;46.008;8.978;2023-11-19T07:38:57;94719.47;;;5.62;69.71
45941;BME280;31858;46.008;8.978;2023-11-19T07:48:58;94730.97;;;5.94;61.41
45941;BME280;31858;46.008;8.978;2023-11-19T07:59:01;94721.97;;;5.82;63.36
45941;BME280;31858;46.008;8.978;2023-11-19T08:09:03;94734.44;;;6.10;62.90
45941;BME280;31858;46.008;8.978;2023-11-19T08:19:07;94741.22;;;5.95;69.85
45941;BME280;31858;46.008;8.978;2023-11-19T08:29:08;94759.41;;;5.84;77.53
45941;BME280;31858;46.008;8.978;2023-11-19T08:39:11;94749.41;;;6.18;67.51
45941;BME280;31858;46.008;8.978;2023-11-19T08:49:14;94744.34;;;6.13;71.68
45941;BME280;31858;46.008;8.978;2023-11-19T08:59:17;94741.69;;;6.41;65.65
45941;BME280;31858;46.008;8.978;2023-11-19T09:09:19;94731.78;;;6.53;71.18
45941;BME280;31858;46.008;8.978;2023-11-19T09:19:22;94722.91;;;6.62;72.63
45941;BME280;31858;46.008;8.978;2023-11-19T09:29:23;94743.84;;;6.82;77.42
45941;BME280;31858;46.008;8.978;2023-11-19T09:39:26;94727.94;;;6.82;85.21
45941;BME280;31858;46.008;8.978;2023-11-19T09:49:28;94730.44;;;7.07;68.80
45941;BME280;31858;46.008;8.978;2023-11-19T09:59:32;94716.34;;;7.38;66.15
45941;BME280;31858;46.008;8.978;2023-11-19T10:09:34;94696.06;;;7.45;83.58
45941;BME280;31858;46.008;8.978;2023-11-19T10:19:39;94718.69;;;7.59;75.09
45941;BME280;31858;46.008;8.978;2023-11-19T10:29:44;94680.03;;;7.77;66.42
45941;BME280;31858;46.008;8.978;2023-11-19T10:39:54;94670.44;;;8.11;73.57
45941;BME280;31858;46.008;8.978;2023-11-19T10:49:55;94651.19;;;8.37;53.53
45941;BME280;31858;46.008;8.978;2023-11-19T11:00:01;94660.00;;;8.64;52.41
45941;BME280;31858;46.008;8.978;2023-11-19T11:10:05;94641.13;;;8.95;55.50
45941;BME280;31858;46.008;8.978;2023-11-19T11:20:11;94634.84;;;9.07;57.86
45941;BME280;31858;46.008;8.978;2023-11-19T11:30:23;94636.53;;;9.22;59.37
45941;BME280;31858;46.008;8.978;2023-11-19T11:40:31;94630.47;;;9.52;52.74
45941;BME280;31858;46.008;8.978;2023-11-19T11:50:34;94606.56;;;9.89;46.04
45941;BME280;31858;46.008;8.978;2023-11-19T12:00:39;94608.81;;;10.20;45.19
45941;BME280;31858;46.008;8.978;2023-11-19T12:10:44;94597.94;;;10.36;47.68
45941;BME280;31858;46.008;8.978;2023-11-19T12:20:49;94583.88;;;10.42;44.72
45941;BME280;31858;46.008;8.978;2023-11-19T12:30:50;94581.59;;;10.44;50.03
45941;BME280;31858;46.008;8.978;2023-11-19T12:41:07;94588.34;;;10.79;47.50
45941;BME280;31858;46.008;8.978;2023-11-19T12:51:10;94601.06;;;11.03;48.27
45941;BME280;31858;46.008;8.978;2023-11-19T13:01:16;94586.50;;;10.90;46.38
45941;BME280;31858;46.008;8.978;2023-11-19T13:11:30;94560.88;;;10.71;47.58
45941;BME280;31858;46.008;8.978;2023-11-19T13:21:33;94545.94;;;11.22;50.20
45941;BME280;31858;46.008;8.978;2023-11-19T13:31:34;94555.88;;;11.32;50.23
45941;BME280;31858;46.008;8.978;2023-11-19T13:41:37;94547.41;;;11.16;53.06
45941;BME280;31858;46.008;8.978;2023-11-19T13:51:39;94529.56;;;11.30;53.86
45941;BME280;31858;46.008;8.978;2023-11-19T14:01:41;94533.81;;;11.42;50.66
45941;BME280;31858;46.008;8.978;2023-11-19T14:11:43;94532.69;;;11.47;50.50
45941;BME280;31858;46.008;8.978;2023-11-19T14:21:46;94518.56;;;11.42;49.59
45941;BME280;31858;46.008;8.978;2023-11-19T14:31:48;94527.41;;;11.71;47.47
45941;BME280;31858;46.008;8.978;2023-11-19T14:41:51;94524.00;;;11.78;47.57
45941;BME280;31858;46.008;8.978;2023-11-19T14:51:53;94516.72;;;11.64;48.30
45941;BME280;31858;46.008;8.978;2023-11-19T15:01:56;94510.63;;;11.64;49.04
45941;BME280;31858;46.008;8.978;2023-11-19T15:11:58;94510.63;;;11.60;51.14
45941;BME280;31858;46.008;8.978;2023-11-19T15:22:01;94514.38;;;11.38;48.09
45941;BME280;31858;46.008;8.978;2023-11-19T15:32:06;94521.16;;;11.25;48.77
45941;BME280;31858;46.008;8.978;2023-11-19T15:42:09;94539.75;;;11.03;48.78
45941;BME280;31858;46.008;8.978;2023-11-19T15:52:12;94550.66;;;10.81;51.37
45941;BME280;31858;46.008;8.978;2023-11-19T16:02:16;94553.72;;;10.83;51.93
45941;BME280;31858;46.008;8.978;2023-11-19T16:12:17;94548.84;;;10.40;55.74
45941;BME280;31858;46.008;8.978;2023-11-19T16:22:20;94539.44;;;10.06;57.12
45941;BME280;31858;46.008;8.978;2023-11-19T16:32:22;94554.06;;;9.86;57.26
45941;BME280;31858;46.008;8.978;2023-11-19T16:42:25;94557.59;;;9.60;64.68
45941;BME280;31858;46.008;8.978;2023-11-19T16:52:26;94554.09;;;9.52;65.10
45941;BME280;31858;46.008;8.978;2023-11-19T17:02:30;94572.50;;;9.34;65.62
45941;BME280;31858;46.008;8.978;2023-11-19T17:12:32;94576.56;;;9.25;67.71
45941;BME280;31858;46.008;8.978;2023-11-19T17:22:36;94568.09;;;9.15;64.35
45941;BME280;31858;46.008;8.978;2023-11-19T17:32:38;94580.81;;;8.99;64.60
45941;BME280;31858;46.008;8.978;2023-11-19T17:42:41;94575.06;;;8.94;69.38
45941;BME280;31858;46.008;8.978;2023-11-19T17:52:43;94582.88;;;8.83;72.69
45941;BME280;31858;46.008;8.978;2023-11-19T18:02:47;94584.25;;;8.73;79.84
45941;BME280;31858;46.008;8.978;2023-11-19T18:12:50;94578.94;;;8.73;69.97
45941;BME280;31858;46.008;8.978;2023-11-19T18:22:53;94589.09;;;8.68;84.01
45941;BME280;31858;46.008;8.978;2023-11-19T18:32:55;94582.63;;;8.65;81.90
45941;BME280;31858;46.008;8.978;2023-11-19T18:42:58;94583.63;;;8.57;79.76
45941;BME280;31858;46.008;8.978;2023-11-19T18:52:59;94598.69;;;8.49;81.96
45941;BME280;31858;46.008;8.978;2023-11-19T19:03:02;94571.72;;;8.47;83.87
45941;BME280;31858;46.008;8.978;2023-11-19T19:13:05;94581.94;;;8.45;82.85
45941;BME280;31858;46.008;8.978;2023-11-19T19:23:09;94576.91;;;8.40;88.62
45941;BME280;31858;46.008;8.978;2023-11-19T19:33:11;94580.09;;;8.27;88.89
45941;BME280;31858;46.008;8.978;2023-11-19T19:43:14;94573.94;;;8.23;87.97
45941;BME280;31858;46.008;8.978;2023-11-19T19:53:16;94566.94;;;8.11;85.11
45941;BME280;31858;46.008;8.978;2023-11-19T20:03:18;94558.69;;;8.16;84.23
45941;BME280;31858;46.008;8.978;2023-11-19T20:13:21;94549.28;;;7.99;86.35
45941;BME280;31858;46.008;8.978;2023-11-19T20:23:24;94543.41;;;8.09;87.20
45941;BME280;31858;46.008;8.978;2023-11-19T20:33:26;94552.59;;;7.93;89.92
45941;BME280;31858;46.008;8.978;2023-11-19T20:43:28;94541.69;;;7.98;91.16
45941;BME280;31858;46.008;8.978;2023-11-19T20:53:30;94551.19;;;7.99;89.63
45941;BME280;31858;46.008;8.978;2023-11-19T21:03:33;94558.84;;;7.81;89.00
45941;BME280;31858;46.008;8.978;2023-11-19T21:13:37;94551.19;;;7.76;99.66
45941;BME280;31858;46.008;8.978;2023-11-19T21:23:40;94548.56;;;7.57;90.77
45941;BME280;31858;46.008;8.978;2023-11-19T21:33:41;94540.94;;;7.74;92.26
45941;BME280;31858;46.008;8.978;2023-11-19T21:43:44;94552.13;;;7.64;96.82
45941;BME280;31858;46.008;8.978;2023-11-19T21:53:46;94532.44;;;7.65;98.71
45941;BME280;31858;46.008;8.978;2023-11-19T22:03:49;94530.31;;;7.51;96.17
45941;BME280;31858;46.008;8.978;2023-11-19T22:13:50;94537.63;;;7.39;100.00
45941;BME280;31858;46.008;8.978;2023-11-19T22:23:53;94540.97;;;7.55;95.00
45941;BME280;31858;46.008;8.978;2023-11-19T22:33:55;94541.53;;;7.45;94.60
45941;BME280;31858;46.008;8.978;2023-11-19T22:43:58;94546.22;;;7.32;96.09
45941;BME280;31858;46.008;8.978;2023-11-19T22:53:59;94542.81;;;7.32;100.00
45941;BME280;31858;46.008;8.978;2023-11-19T23:04:03;94543.84;;;7.27;96.12
45941;BME280;31858;46.008;8.978;2023-11-19T23:14:04;94536.94;;;7.23;100.00
45941;BME280;31858;46.008;8.978;2023-11-19T23:24:07;94536.47;;;7.17;100.00
45941;BME280;31858;46.008;8.978;2023-11-19T23:34:09;94531.78;;;6.91;100.00
45941;BME280;31858;46.008;8.978;2023-11-19T23:44:12;94524.03;;;6.82;100.00
45941;BME280;31858;46.008;8.978;2023-11-19T23:54:13;94498.44;;;6.90;100.00
